createdAt,value
2019-03-28T00:00:09.544Z,102309.92
2019-03-28T00:02:39.259Z,102310.39
2019-03-28T00:05:08.753Z,102309.45
2019-03-28T00:07:38.256Z,102308.49
2019-03-28T00:10:07.571Z,102308.19
2019-03-28T00:12:36.142Z,102307.83
2019-03-28T00:15:06.839Z,102309.13
2019-03-28T00:17:35.777Z,102310.80
2019-03-28T00:20:06.095Z,102306.92
2019-03-28T00:22:36.889Z,102306.40
2019-03-28T00:25:07.574Z,102307.92
2019-03-28T00:27:36.443Z,102297.52
2019-03-28T00:30:07.214Z,102295.97
2019-03-28T00:32:36.073Z,102294.89
2019-03-28T00:35:06.494Z,102289.61
2019-03-28T00:37:36.034Z,102296.75
2019-03-28T00:40:08.141Z,102295.78
2019-03-28T00:42:36.966Z,102294.72
2019-03-28T00:45:07.751Z,102296.70
2019-03-28T00:47:36.908Z,102297.05
2019-03-28T00:50:08.205Z,102299.61
2019-03-28T00:52:37.663Z,102301.93
2019-03-28T00:55:07.765Z,102308.03
2019-03-28T00:57:36.927Z,102305.55
2019-03-28T01:00:07.723Z,102302.70
2019-03-28T01:02:36.705Z,102305.89
2019-03-28T01:05:06.933Z,102300.61
2019-03-28T01:07:36.001Z,102297.92
2019-03-28T01:10:05.917Z,102292.80
2019-03-28T01:12:34.987Z,102300.86
2019-03-28T01:15:05.030Z,102302.37
2019-03-28T01:17:34.336Z,102296.70
2019-03-28T01:20:03.380Z,102294.40
2019-03-28T01:22:31.976Z,102300.20
2019-03-28T01:25:01.820Z,102300.12
2019-03-28T01:27:31.357Z,102297.70
2019-03-28T01:30:00.338Z,102300.88
2019-03-28T01:32:29.417Z,102299.56
2019-03-28T01:34:58.368Z,102295.72
2019-03-28T01:37:27.295Z,102293.36
2019-03-28T01:39:56.290Z,102294.01
2019-03-28T01:42:25.384Z,102290.76
2019-03-28T01:44:54.278Z,102285.58
2019-03-28T01:47:23.172Z,102293.10
2019-03-28T01:49:52.369Z,102288.39
2019-03-28T01:52:21.427Z,102293.35
2019-03-28T01:54:50.363Z,102288.92
2019-03-28T01:57:19.665Z,102289.00
2019-03-28T01:59:48.789Z,102287.16
2019-03-28T02:02:17.758Z,102285.06
2019-03-28T02:04:46.679Z,102285.31
2019-03-28T02:07:16.191Z,102284.52
2019-03-28T02:09:44.908Z,102284.20
2019-03-28T02:12:13.941Z,102283.42
2019-03-28T02:14:42.840Z,102287.30
2019-03-28T02:19:58.042Z,102276.94
2019-03-28T02:22:27.060Z,102274.45
2019-03-28T02:24:56.094Z,102275.59
2019-03-28T02:27:25.987Z,102286.23
2019-03-28T02:29:54.897Z,102277.41
2019-03-28T02:32:23.829Z,102281.25
2019-03-28T02:34:52.929Z,102281.72
2019-03-28T02:37:22.286Z,102273.35
2019-03-28T02:39:51.180Z,102276.23
2019-03-28T02:42:20.127Z,102280.80
2019-03-28T02:44:49.373Z,102276.77
2019-03-28T02:47:18.067Z,102273.45
2019-03-28T02:49:47.051Z,102274.59
2019-03-28T02:52:15.995Z,102270.72
2019-03-28T02:54:45.068Z,102267.33
2019-03-28T02:57:14.253Z,102275.70
2019-03-28T02:59:43.410Z,102275.59
2019-03-28T03:02:12.991Z,102276.55
2019-03-28T03:04:43.041Z,102272.28
2019-03-28T03:07:12.229Z,102279.41
2019-03-28T03:09:41.270Z,102279.72
2019-03-28T03:12:10.486Z,102283.60
2019-03-28T03:14:39.489Z,102289.48
2019-03-28T03:17:08.506Z,102283.42
2019-03-28T03:19:37.647Z,102284.27
2019-03-28T03:22:06.910Z,102287.23
2019-03-28T03:24:35.795Z,102288.86
2019-03-28T03:27:05.052Z,102285.59
2019-03-28T03:29:34.095Z,102283.13
2019-03-28T03:32:03.203Z,102286.63
2019-03-28T03:34:33.134Z,102290.01
2019-03-28T03:37:03.800Z,102287.30
2019-03-28T03:39:33.527Z,102286.12
2019-03-28T03:42:02.648Z,102284.05
2019-03-28T03:44:31.553Z,102294.14
2019-03-28T03:47:00.917Z,102288.15
2019-03-28T03:49:30.759Z,102286.75
2019-03-28T03:52:00.125Z,102282.94
2019-03-28T03:54:29.510Z,102289.31
2019-03-28T03:56:58.665Z,102294.87
2019-03-28T03:59:27.855Z,102297.83
2019-03-28T04:01:57.298Z,102295.66
2019-03-28T04:04:26.221Z,102303.56
2019-03-28T04:06:55.318Z,102308.23
2019-03-28T04:09:24.398Z,102304.28
2019-03-28T04:11:53.965Z,102309.02
2019-03-28T04:14:22.919Z,102304.28
2019-03-28T04:16:52.109Z,102311.66
2019-03-28T04:19:21.472Z,102309.16
2019-03-28T04:21:50.734Z,102315.88
2019-03-28T04:24:19.821Z,102312.85
2019-03-28T04:26:49.077Z,102316.28
2019-03-28T04:29:18.045Z,102319.83
2019-03-28T04:31:47.478Z,102326.20
2019-03-28T04:34:17.344Z,102317.83
2019-03-28T04:36:46.331Z,102318.98
2019-03-28T04:39:16.578Z,102318.05
2019-03-28T04:41:46.063Z,102323.64
2019-03-28T04:44:15.403Z,102327.99
2019-03-28T04:46:45.325Z,102334.19
2019-03-28T04:49:15.763Z,102328.07
2019-03-28T04:51:45.180Z,102344.09
2019-03-28T04:54:15.002Z,102339.64
2019-03-28T04:56:44.261Z,102336.61
2019-03-28T04:59:13.260Z,102332.66
2019-03-28T05:01:42.369Z,102332.22
2019-03-28T05:04:11.049Z,102331.73
2019-03-28T05:06:40.349Z,102335.03
2019-03-28T05:09:09.094Z,102332.68
2019-03-28T05:11:38.641Z,102332.32
2019-03-28T05:14:07.323Z,102338.45
2019-03-28T05:16:36.740Z,102343.00
2019-03-28T05:19:05.496Z,102334.95
2019-03-28T05:21:34.972Z,102337.02
2019-03-28T05:24:03.662Z,102335.70
2019-03-28T05:26:33.101Z,102337.21
2019-03-28T05:29:01.845Z,102338.69
2019-03-28T05:31:30.724Z,102331.03
2019-03-28T05:33:59.398Z,102339.08
2019-03-28T05:36:27.975Z,102338.22
2019-03-28T05:38:56.879Z,102334.42
2019-03-28T05:41:26.367Z,102344.36
2019-03-28T05:43:55.097Z,102346.99
2019-03-28T05:46:25.897Z,102347.84
2019-03-28T05:48:55.204Z,102347.93
2019-03-28T05:51:23.981Z,102356.30
2019-03-28T05:53:53.419Z,102360.19
2019-03-28T05:56:22.152Z,102360.44
2019-03-28T05:58:51.013Z,102370.73
2019-03-28T06:01:19.596Z,102364.06
2019-03-28T06:03:48.478Z,102375.08
2019-03-28T06:06:18.377Z,102381.35
2019-03-28T06:08:48.067Z,102378.04
2019-03-28T06:11:16.813Z,102373.84
2019-03-28T06:13:46.259Z,102377.72
2019-03-28T06:16:14.917Z,102380.42
2019-03-28T06:18:44.023Z,102387.94
2019-03-28T06:21:13.090Z,102384.91
2019-03-28T06:23:42.674Z,102383.31
2019-03-28T06:26:11.277Z,102385.95
2019-03-28T06:28:40.101Z,102382.28
2019-03-28T06:31:08.827Z,102388.80
2019-03-28T06:33:38.531Z,102398.28
2019-03-28T06:36:08.214Z,102397.43
2019-03-28T06:38:37.070Z,102394.39
2019-03-28T06:41:05.762Z,102396.30
2019-03-28T06:43:34.564Z,102388.52
2019-03-28T06:46:04.017Z,102390.20
2019-03-28T06:48:32.886Z,102392.42
2019-03-28T06:51:02.384Z,102387.12
2019-03-28T06:53:31.164Z,102392.06
2019-03-28T06:56:00.561Z,102380.20
2019-03-28T06:58:29.398Z,102390.23
2019-03-28T07:00:58.330Z,102382.03
2019-03-28T07:03:27.684Z,102388.16
2019-03-28T07:05:56.867Z,102390.25
2019-03-28T07:08:25.718Z,102379.88
2019-03-28T07:10:57.794Z,102383.84
2019-03-28T07:13:25.277Z,102385.64
2019-03-28T07:15:53.926Z,102382.12
2019-03-28T07:18:23.328Z,102381.77
2019-03-28T07:20:52.439Z,102374.84
2019-03-28T07:23:22.206Z,102377.52
2019-03-28T07:25:51.640Z,102383.58
2019-03-28T07:28:20.750Z,102387.41
2019-03-28T07:30:49.627Z,102382.31
2019-03-28T07:33:18.746Z,102384.20
2019-03-28T07:35:47.916Z,102379.68
2019-03-28T07:38:16.732Z,102376.19
2019-03-28T07:40:45.468Z,102381.55
2019-03-28T07:43:14.474Z,102376.45
2019-03-28T07:45:43.512Z,102374.45
2019-03-28T07:48:12.901Z,102370.88
2019-03-28T07:50:42.778Z,102373.48
2019-03-28T07:53:11.956Z,102372.73
2019-03-28T07:55:40.876Z,102372.73
2019-03-28T07:58:09.667Z,102365.72
2019-03-28T08:00:38.611Z,102364.14
2019-03-28T08:03:07.857Z,102362.91
2019-03-28T08:05:36.982Z,102369.19
2019-03-28T08:08:05.949Z,102366.88
2019-03-28T08:10:34.814Z,102366.38
2019-03-28T08:13:04.396Z,102366.54
2019-03-28T08:15:33.311Z,102368.02
2019-03-28T08:18:02.238Z,102370.77
2019-03-28T08:20:31.303Z,102367.26
2019-03-28T08:23:00.519Z,102369.20
2019-03-28T08:25:29.493Z,102366.70
2019-03-28T08:27:58.150Z,102367.86
2019-03-28T08:30:35.942Z,102364.48
2019-03-28T08:33:06.158Z,102359.01
2019-03-28T08:35:36.802Z,102361.30
2019-03-28T08:38:09.783Z,102368.42
2019-03-28T08:40:40.063Z,102362.83
2019-03-28T08:43:09.951Z,102361.73
2019-03-28T08:45:39.614Z,102357.01
2019-03-28T08:48:08.464Z,102353.80
2019-03-28T08:50:37.358Z,102358.38
2019-03-28T08:53:06.317Z,102359.45
2019-03-28T08:55:34.989Z,102342.59
2019-03-28T08:58:04.368Z,102347.32
2019-03-28T09:00:50.216Z,102340.09
2019-03-28T09:03:03.604Z,102341.20
2019-03-28T09:05:33.421Z,102345.59
2019-03-28T09:08:02.296Z,102344.97
2019-03-28T09:10:31.382Z,102342.31
2019-03-28T09:13:00.097Z,102347.41
2019-03-28T09:15:42.687Z,102350.55
2019-03-28T09:18:00.360Z,102352.61
2019-03-28T09:20:29.793Z,102350.81
2019-03-28T09:22:58.765Z,102347.50
2019-03-28T09:25:28.004Z,102342.75
2019-03-28T09:27:56.855Z,102346.08
2019-03-28T09:30:47.518Z,102342.28
2019-03-28T09:33:07.650Z,102332.70
2019-03-28T09:35:36.797Z,102332.70
2019-03-28T09:38:05.418Z,102340.12
2019-03-28T09:40:34.861Z,102327.50
2019-03-28T09:43:04.015Z,102327.22
2019-03-28T09:45:33.169Z,102329.48
2019-03-28T09:48:02.499Z,102342.03
2019-03-28T09:50:32.054Z,102340.11
2019-03-28T09:53:01.282Z,102338.87
2019-03-28T09:55:30.731Z,102341.34
2019-03-28T09:57:59.830Z,102335.98
2019-03-28T10:00:32.451Z,102342.66
2019-03-28T10:03:00.478Z,102327.82
2019-03-28T10:05:29.867Z,102331.63
2019-03-28T10:07:59.321Z,102331.59
2019-03-28T10:10:28.644Z,102321.91
2019-03-28T10:12:57.872Z,102320.20
2019-03-28T10:15:27.248Z,102321.94
2019-03-28T10:17:56.475Z,102322.08
2019-03-28T10:20:25.618Z,102325.19
2019-03-28T10:22:55.379Z,102317.64
2019-03-28T10:25:24.375Z,102319.20
2019-03-28T10:27:53.548Z,102289.12
2019-03-28T10:30:28.097Z,102289.12
2019-03-28T10:32:57.207Z,102305.92
2019-03-28T10:35:29.548Z,102303.28
2019-03-28T10:37:59.000Z,102307.39
2019-03-28T10:40:28.335Z,102307.44
2019-03-28T10:42:57.588Z,102305.77
2019-03-28T10:45:26.722Z,102312.81
2019-03-28T10:47:56.007Z,102312.59
2019-03-28T10:50:39.820Z,102311.85
2019-03-28T10:52:56.357Z,102310.84
2019-03-28T10:55:25.367Z,102314.67
2019-03-28T10:57:54.974Z,102309.08
2019-03-28T11:00:25.244Z,102311.75
2019-03-28T11:02:54.805Z,102318.70
2019-03-28T11:05:23.488Z,102305.42
2019-03-28T11:07:52.801Z,102311.67
2019-03-28T11:10:22.106Z,102311.64
2019-03-28T11:12:51.324Z,102309.40
2019-03-28T11:15:20.642Z,102296.85
2019-03-28T11:17:49.931Z,102288.56
2019-03-28T11:20:19.588Z,102281.16
2019-03-28T11:22:48.804Z,102287.38
2019-03-28T11:25:18.058Z,102286.75
2019-03-28T11:27:47.684Z,102271.96
2019-03-28T11:30:18.500Z,102274.30
2019-03-28T11:32:47.866Z,102277.45
2019-03-28T11:35:17.136Z,102267.37
2019-03-28T11:37:47.383Z,102265.28
2019-03-28T11:40:17.167Z,102261.55
2019-03-28T11:42:46.486Z,102258.13
2019-03-28T11:45:15.825Z,102261.83
2019-03-28T11:47:45.130Z,102259.03
2019-03-28T11:50:17.102Z,102249.92
2019-03-28T11:52:45.205Z,102252.00
2019-03-28T11:55:14.584Z,102248.84
2019-03-28T11:57:44.120Z,102252.99
2019-03-28T12:00:16.454Z,102254.44
2019-03-28T12:02:45.910Z,102242.11
2019-03-28T12:05:15.853Z,102242.39
2019-03-28T12:07:45.211Z,102243.05
2019-03-28T12:10:14.638Z,102232.31
2019-03-28T12:12:44.078Z,102230.05
2019-03-28T12:15:13.642Z,102219.52
2019-03-28T12:17:43.391Z,102210.64
2019-03-28T12:20:12.538Z,102211.14
2019-03-28T12:22:42.765Z,102211.02
2019-03-28T12:25:12.376Z,102214.02
2019-03-28T12:27:41.608Z,102207.22
2019-03-28T12:30:15.777Z,102208.80
2019-03-28T12:32:43.484Z,102215.94
2019-03-28T12:35:13.174Z,102218.55
2019-03-28T12:37:42.522Z,102195.34
2019-03-28T12:40:11.903Z,102208.70
2019-03-28T12:42:41.412Z,102196.45
2019-03-28T12:45:15.065Z,102204.17
2019-03-28T12:47:44.651Z,102204.14
2019-03-28T12:50:15.017Z,102203.73
2019-03-28T12:52:45.020Z,102188.85
2019-03-28T12:55:14.138Z,102205.24
2019-03-28T12:57:43.775Z,102203.84
2019-03-28T13:00:14.271Z,102201.80
2019-03-28T13:02:43.762Z,102203.44
2019-03-28T13:05:13.265Z,102207.50
2019-03-28T13:07:42.582Z,102208.81
2019-03-28T13:10:12.160Z,102188.62
2019-03-28T13:12:41.928Z,102196.16
2019-03-28T13:15:11.168Z,102207.34
2019-03-28T13:17:39.966Z,102212.34
2019-03-28T13:20:09.849Z,102205.73
2019-03-28T13:22:39.043Z,102206.05
2019-03-28T13:25:08.489Z,102201.95
2019-03-28T13:27:38.010Z,102204.04
2019-03-28T13:30:10.794Z,102206.08
2019-03-28T13:32:42.240Z,102194.62
2019-03-28T13:35:11.678Z,102199.80
2019-03-28T13:37:40.256Z,102196.86
2019-03-28T13:40:09.856Z,102190.23
2019-03-28T13:42:39.463Z,102192.92
2019-03-28T13:45:12.043Z,102191.27
2019-03-28T13:47:41.595Z,102192.45
2019-03-28T13:50:11.971Z,102184.17
2019-03-28T13:52:40.863Z,102187.39
2019-03-28T13:55:10.372Z,102192.06
2019-03-28T13:57:39.633Z,102189.09
2019-03-28T14:00:09.648Z,102192.67
2019-03-28T14:02:38.953Z,102187.17
2019-03-28T14:05:09.131Z,102181.63
2019-03-28T14:07:38.276Z,102183.86
2019-03-28T14:10:08.714Z,102166.52
2019-03-28T14:12:38.167Z,102169.02
2019-03-28T14:15:07.796Z,102169.44
2019-03-28T14:17:36.819Z,102174.72
2019-03-28T14:20:08.949Z,102174.98
2019-03-28T14:22:38.623Z,102168.67
2019-03-28T14:25:07.901Z,102163.28
2019-03-28T14:27:37.582Z,102166.63
2019-03-28T14:30:09.692Z,102163.23
2019-03-28T14:32:52.115Z,102165.02
2019-03-28T14:35:09.572Z,102161.55
2019-03-28T14:37:40.750Z,102162.14
2019-03-28T14:40:10.267Z,102158.55
2019-03-28T14:42:40.727Z,102158.61
2019-03-28T14:45:10.055Z,102163.30
2019-03-28T14:47:38.947Z,102170.32
2019-03-28T14:50:09.767Z,102161.98
2019-03-28T14:52:38.841Z,102155.37
2019-03-28T14:55:08.685Z,102159.56
2019-03-28T14:57:37.641Z,102156.28
2019-03-28T15:00:09.979Z,102162.69
2019-03-28T15:02:38.735Z,102154.28
2019-03-28T15:05:07.839Z,102151.82
2019-03-28T15:07:36.903Z,102149.92
2019-03-28T15:10:07.227Z,102154.09
2019-03-28T15:12:36.592Z,102151.27
2019-03-28T15:15:06.383Z,102148.21
2019-03-28T15:17:35.345Z,102145.27
2019-03-28T15:20:05.933Z,102148.77
2019-03-28T15:22:35.595Z,102146.95
2019-03-28T15:25:05.901Z,102146.92
2019-03-28T15:27:35.426Z,102147.48
2019-03-28T15:30:08.380Z,102143.99
2019-03-28T15:32:37.434Z,102138.53
2019-03-28T15:35:06.574Z,102135.29
2019-03-28T15:37:35.521Z,102138.81
2019-03-28T15:40:08.496Z,102133.41
2019-03-28T15:42:37.631Z,102136.20
2019-03-28T15:45:07.417Z,102130.48
2019-03-28T15:47:37.181Z,102127.52
2019-03-28T15:50:06.742Z,102125.22
2019-03-28T15:52:35.752Z,102119.50
2019-03-28T15:55:05.701Z,102128.65
2019-03-28T15:57:35.785Z,102124.20
2019-03-28T16:00:07.555Z,102131.33
2019-03-28T16:02:36.135Z,102125.97
2019-03-28T16:05:06.223Z,102125.66
2019-03-28T16:07:34.925Z,102136.46
2019-03-28T16:10:04.794Z,102129.74
2019-03-28T16:12:33.814Z,102138.61
2019-03-28T16:15:05.350Z,102133.34
2019-03-28T16:17:34.103Z,102133.69
2019-03-28T16:20:03.380Z,102128.00
2019-03-28T16:22:32.881Z,102126.53
2019-03-28T16:25:01.743Z,102131.11
2019-03-28T16:27:30.958Z,102132.49
2019-03-28T16:30:00.027Z,102127.81
2019-03-28T16:32:29.532Z,102135.29
2019-03-28T16:34:58.807Z,102138.69
2019-03-28T16:37:28.455Z,102139.17
2019-03-28T16:39:57.277Z,102137.11
2019-03-28T16:42:26.481Z,102138.52
2019-03-28T16:44:55.528Z,102136.00
2019-03-28T16:47:24.262Z,102132.47
2019-03-28T16:49:53.129Z,102133.84
2019-03-28T16:52:21.725Z,102136.40
2019-03-28T16:54:51.044Z,102133.82
2019-03-28T16:57:20.669Z,102132.33
2019-03-28T16:59:50.228Z,102139.64
2019-03-28T17:02:19.383Z,102138.44
2019-03-28T17:04:49.709Z,102135.55
2019-03-28T17:07:18.841Z,102133.31
2019-03-28T17:09:47.858Z,102140.73
2019-03-28T17:12:17.121Z,102142.11
2019-03-28T17:14:48.085Z,102145.16
2019-03-28T17:17:17.676Z,102147.02
2019-03-28T17:19:47.136Z,102143.05
2019-03-28T17:22:16.797Z,102146.59
2019-03-28T17:24:46.367Z,102145.52
2019-03-28T17:27:15.213Z,102147.64
2019-03-28T17:29:44.671Z,102153.70
2019-03-28T17:32:13.567Z,102162.34
2019-03-28T17:34:45.824Z,102150.55
2019-03-28T17:37:14.022Z,102155.05
2019-03-28T17:39:43.352Z,102160.21
2019-03-28T17:42:12.411Z,102162.94
2019-03-28T17:44:41.525Z,102168.44
2019-03-28T17:47:10.752Z,102170.60
2019-03-28T17:49:40.607Z,102172.12
2019-03-28T17:52:10.130Z,102170.42
2019-03-28T17:54:39.337Z,102170.86
2019-03-28T17:57:08.480Z,102171.64
2019-03-28T17:59:38.254Z,102171.58
2019-03-28T18:02:07.274Z,102178.92
2019-03-28T18:04:47.421Z,102175.39
2019-03-28T18:07:07.750Z,102178.71
2019-03-28T18:09:37.740Z,102178.95
2019-03-28T18:12:06.825Z,102174.48
2019-03-28T18:14:35.863Z,102179.80
2019-03-28T18:17:05.395Z,102186.27
2019-03-28T18:19:34.953Z,102187.33
2019-03-28T18:22:04.297Z,102193.34
2019-03-28T18:24:34.478Z,102194.84
2019-03-28T18:27:03.825Z,102203.01
2019-03-28T18:29:35.835Z,102200.25
2019-03-28T18:32:03.635Z,102205.22
2019-03-28T18:34:34.748Z,102203.69
2019-03-28T18:37:03.948Z,102207.02
2019-03-28T18:39:32.759Z,102203.95
2019-03-28T18:42:02.343Z,102212.53
2019-03-28T18:44:32.046Z,102211.25
2019-03-28T18:47:01.188Z,102210.19
2019-03-28T18:49:30.961Z,102211.47
2019-03-28T18:52:00.797Z,102214.42
2019-03-28T18:54:29.778Z,102212.14
2019-03-28T18:56:59.151Z,102207.18
2019-03-28T18:59:28.066Z,102215.20
2019-03-28T19:01:57.496Z,102210.43
2019-03-28T19:04:27.517Z,102212.13
2019-03-28T19:06:57.739Z,102212.61
2019-03-28T19:09:27.501Z,102215.73
2019-03-28T19:11:57.130Z,102215.12
2019-03-28T19:14:26.411Z,102209.46
2019-03-28T19:17:00.912Z,102218.79
2019-03-28T19:19:39.264Z,102223.27
2019-03-28T19:22:01.172Z,102219.25
2019-03-28T19:24:30.030Z,102219.18
2019-03-28T19:26:59.118Z,102222.59
2019-03-28T19:29:27.921Z,102227.06
2019-03-28T19:31:56.917Z,102224.99
2019-03-28T19:34:26.076Z,102224.16
2019-03-28T19:36:57.017Z,102226.34
2019-03-28T19:39:31.669Z,102224.77
2019-03-28T19:42:04.236Z,102222.59
2019-03-28T19:44:31.987Z,102230.44
2019-03-28T19:47:01.383Z,102224.62
2019-03-28T19:49:30.847Z,102227.08
2019-03-28T19:52:00.327Z,102229.98
2019-03-28T19:54:30.066Z,102220.28
2019-03-28T19:56:59.926Z,102222.19
2019-03-28T19:59:28.721Z,102218.36
2019-03-28T20:01:57.520Z,102218.61
2019-03-28T20:04:26.772Z,102214.34
2019-03-28T20:06:55.589Z,102214.08
2019-03-28T20:09:24.575Z,102217.84
2019-03-28T20:11:53.406Z,102215.66
2019-03-28T20:14:23.528Z,102209.15
2019-03-28T20:16:53.792Z,102212.64
2019-03-28T20:19:23.334Z,102213.97
2019-03-28T20:21:51.975Z,102214.69
2019-03-28T20:24:21.324Z,102215.05
2019-03-28T20:26:50.013Z,102221.84
2019-03-28T20:29:18.967Z,102219.66
2019-03-28T20:31:48.281Z,102217.23
2019-03-28T20:34:17.070Z,102213.01
2019-03-28T20:36:46.509Z,102212.39
2019-03-28T20:39:15.489Z,102214.09
2019-03-28T20:41:44.546Z,102209.25
2019-03-28T20:44:14.164Z,102209.00
2019-03-28T20:46:43.178Z,102206.34
2019-03-28T20:49:12.317Z,102213.11
2019-03-28T20:51:41.691Z,102216.34
2019-03-28T20:54:11.093Z,102218.52
2019-03-28T20:56:40.017Z,102216.09
2019-03-28T20:59:09.272Z,102218.07
2019-03-28T21:01:38.145Z,102213.68
2019-03-28T21:04:08.764Z,102218.52
2019-03-28T21:06:38.447Z,102221.19
2019-03-28T21:09:08.408Z,102210.42
2019-03-28T21:11:38.922Z,102213.94
2019-03-28T21:14:07.888Z,102217.92
2019-03-28T21:16:38.060Z,102219.74
2019-03-28T21:19:07.689Z,102209.80
2019-03-28T21:21:37.184Z,102215.75
2019-03-28T21:24:06.208Z,102214.53
2019-03-28T21:26:35.274Z,102220.19
2019-03-28T21:29:04.618Z,102217.05
2019-03-28T21:31:34.460Z,102214.53
2019-03-28T21:34:03.554Z,102217.16
2019-03-28T21:36:32.944Z,102211.09
2019-03-28T21:39:02.065Z,102215.56
2019-03-28T21:41:31.356Z,102210.61
2019-03-28T21:44:00.373Z,102212.69
2019-03-28T21:46:29.511Z,102208.77
2019-03-28T21:48:59.250Z,102204.55
2019-03-28T21:51:28.243Z,102211.80
2019-03-28T21:53:58.284Z,102211.64
2019-03-28T21:56:28.213Z,102203.77
2019-03-28T21:58:58.161Z,102203.28
2019-03-28T22:01:27.917Z,102199.45
2019-03-28T22:03:57.660Z,102195.09
2019-03-28T22:06:27.304Z,102197.44
2019-03-28T22:08:56.792Z,102203.59
2019-03-28T22:11:26.278Z,102192.58
2019-03-28T22:13:55.902Z,102199.92
2019-03-28T22:16:25.639Z,102187.64
2019-03-28T22:18:55.014Z,102185.94
2019-03-28T22:21:27.252Z,102192.37
2019-03-28T22:23:55.330Z,102194.30
2019-03-28T22:26:24.614Z,102184.94
2019-03-28T22:28:54.085Z,102188.61
2019-03-28T22:31:23.678Z,102189.92
2019-03-28T22:33:52.718Z,102190.41
2019-03-28T22:36:22.066Z,102184.88
2019-03-28T22:38:51.209Z,102182.70
2019-03-28T22:41:20.368Z,102185.46
2019-03-28T22:43:49.823Z,102183.27
2019-03-28T22:46:19.598Z,102177.77
2019-03-28T22:48:48.857Z,102184.41
2019-03-28T22:51:17.852Z,102180.64
2019-03-28T22:53:47.274Z,102181.27
2019-03-28T22:56:16.699Z,102186.58
2019-03-28T22:58:45.674Z,102185.36
2019-03-28T23:01:15.405Z,102187.10
2019-03-28T23:03:44.601Z,102183.12
2019-03-28T23:06:14.093Z,102187.58
2019-03-28T23:08:43.235Z,102187.48
2019-03-28T23:11:13.860Z,102193.81
2019-03-28T23:13:43.301Z,102190.91
2019-03-28T23:16:12.661Z,102190.14
2019-03-28T23:18:42.022Z,102191.95
2019-03-28T23:21:11.572Z,102186.59
2019-03-28T23:23:40.954Z,102194.22
2019-03-28T23:26:10.792Z,102192.20
2019-03-28T23:28:40.100Z,102193.44
2019-03-28T23:31:09.709Z,102195.51
2019-03-28T23:33:38.987Z,102198.19
2019-03-28T23:36:08.429Z,102195.59
2019-03-28T23:38:38.062Z,102195.07
2019-03-28T23:41:07.507Z,102198.34
2019-03-28T23:43:36.725Z,102203.98
2019-03-28T23:46:06.322Z,102200.17
2019-03-28T23:48:35.579Z,102199.50
2019-03-28T23:51:05.288Z,102204.77
2019-03-28T23:53:36.965Z,102210.94
2019-03-28T23:56:06.318Z,102208.48
2019-03-28T23:58:35.646Z,102215.12
